Time;durP1;ratioP1;P1;durP2;ratioP2;P2;SDS_P1;SDS_P2;PMS_P1;PMS_P2;Temp;Humidity;BMP_temperature;BMP_pressure;BME280_temperature;BME280_humidity;BME280_pressure;Samples;Min_cycle;Max_cycle;Signal;HPM_P1;HPM_P2
2024/04/17 00:02:12;;;;;;;4.00;1.35;;;;;;;17.13;50.55;100929.41;11501985;25;20288;-57
2024/04/17 00:07:12;;;;;;;5.87;1.60;;;;;;;17.15;50.02;100921.09;11435239;25;20073;-58
2024/04/17 00:12:13;;;;;;;2.90;1.10;;;;;;;17.13;50.61;100910.66;11423329;26;20336;-57
2024/04/17 00:17:13;;;;;;;3.13;1.15;;;;;;;17.06;50.13;100910.19;11425530;25;20223;-58
2024/04/17 00:22:13;;;;;;;3.23;1.17;;;;;;;17.13;50.56;100910.66;11423722;26;20002;-57
2024/04/17 00:27:14;;;;;;;3.03;1.35;;;;;;;17.15;50.42;100915.72;11455138;25;20254;-56
2024/04/17 00:32:14;;;;;;;5.18;1.52;;;;;;;17.14;49.60;100917.63;11453581;25;20008;-57
2024/04/17 00:37:14;;;;;;;4.87;1.67;;;;;;;17.12;49.84;100913.63;11433386;25;20428;-57
2024/04/17 00:42:15;;;;;;;3.27;1.53;;;;;;;17.12;49.80;100913.63;11423233;26;20219;-58
2024/04/17 00:47:15;;;;;;;3.05;1.50;;;;;;;17.06;49.71;100906.72;11436829;25;20696;-57
2024/04/17 00:52:17;;;;;;;4.90;1.67;;;;;;;17.08;50.04;100908.03;11422628;26;19998;-57
2024/04/17 00:57:18;;;;;;;6.00;1.52;;;;;;;17.15;50.02;100913.84;11389912;25;20001;-57
2024/04/17 01:02:18;;;;;;;3.58;1.20;;;;;;;17.15;49.56;100908.50;11474627;25;20668;-57
2024/04/17 01:07:18;;;;;;;3.05;1.13;;;;;;;17.15;49.43;100905.00;11498822;25;19997;-56
2024/04/17 01:12:19;;;;;;;3.77;1.17;;;;;;;17.21;49.42;100909.25;11415508;26;19994;-57
2024/04/17 01:17:20;;;;;;;3.43;1.30;;;;;;;17.20;48.84;100905.00;11421028;26;20270;-58
2024/04/17 01:22:20;;;;;;;2.58;1.17;;;;;;;17.16;49.41;100899.38;11392669;26;20352;-57
2024/04/17 01:27:20;;;;;;;3.28;1.13;;;;;;;17.20;48.88;100892.38;11428285;26;20008;-58
2024/04/17 01:32:21;;;;;;;4.38;0.95;;;;;;;17.14;48.95;100895.38;11428320;25;20084;-57
2024/04/17 01:37:21;;;;;;;3.47;1.30;;;;;;;17.17;49.13;100886.81;11428319;26;19997;-57
2024/04/17 01:42:21;;;;;;;3.03;1.23;;;;;;;17.16;49.45;100895.91;11429198;25;20230;-57
2024/04/17 01:47:22;;;;;;;3.55;1.70;;;;;;;17.13;49.23;100893.78;11395367;26;20005;-57
2024/04/17 01:52:22;;;;;;;2.70;1.10;;;;;;;17.14;49.08;100890.81;11428577;25;20002;-57
2024/04/17 01:57:22;;;;;;;5.90;1.88;;;;;;;17.17;49.29;100890.28;11429345;25;20226;-57
2024/04/17 02:02:23;;;;;;;4.50;2.10;;;;;;;17.12;48.89;100886.81;11428615;26;20046;-57
2024/04/17 02:07:23;;;;;;;6.13;1.63;;;;;;;17.13;49.31;100885.75;11456090;25;20213;-57
2024/04/17 02:12:23;;;;;;;4.17;1.70;;;;;;;17.13;49.00;100891.91;11463381;25;20847;-57
2024/04/17 02:17:24;;;;;;;5.00;1.13;;;;;;;17.12;48.97;100893.00;11426467;25;20294;-57
2024/04/17 02:22:24;;;;;;;6.47;1.30;;;;;;;17.17;48.71;100892.16;11427396;26;20219;-57
2024/04/17 02:27:25;;;;;;;3.60;1.20;;;;;;;17.17;48.98;100897.53;11432490;25;20472;-58
2024/04/17 02:32:25;;;;;;;3.30;1.23;;;;;;;17.14;48.75;100890.03;11426005;25;20230;-57
2024/04/17 02:37:25;;;;;;;5.37;1.03;;;;;;;17.18;49.02;100888.41;11471797;25;20335;-57
2024/04/17 02:42:25;;;;;;;3.37;1.30;;;;;;;17.17;48.52;100892.16;11504132;25;20257;-57
2024/04/17 02:47:26;;;;;;;2.63;1.10;;;;;;;17.19;48.88;100896.16;11458165;25;20255;-58
2024/04/17 02:52:26;;;;;;;4.17;1.13;;;;;;;17.14;49.07;100890.81;11426628;26;20267;-57
2024/04/17 02:57:26;;;;;;;3.17;1.33;;;;;;;17.17;48.15;100887.59;11413172;26;20222;-58
2024/04/17 03:02:27;;;;;;;3.50;1.20;;;;;;;17.08;49.28;100891.16;11426290;26;21017;-58
2024/04/17 03:07:27;;;;;;;3.45;1.20;;;;;;;17.07;48.49;100890.38;11470129;25;20233;-57
2024/04/17 03:12:27;;;;;;;3.03;1.20;;;;;;;17.11;48.92;100891.38;11460899;25;20016;-57
2024/04/17 03:17:28;;;;;;;3.85;1.27;;;;;;;17.08;48.84;100896.53;11481420;25;20285;-57
2024/04/17 03:22:28;;;;;;;3.70;1.00;;;;;;;17.15;48.67;100899.66;11502775;25;20375;-57
2024/04/17 03:27:28;;;;;;;5.13;1.67;;;;;;;17.14;48.46;100896.19;11450712;25;20271;-57
2024/04/17 03:32:29;;;;;;;4.30;1.20;;;;;;;17.18;48.58;100907.16;11404507;26;20274;-58
2024/04/17 03:37:29;;;;;;;3.07;1.43;;;;;;;17.24;49.05;100906.81;11392967;25;20089;-56
2024/04/17 03:42:30;;;;;;;4.70;1.13;;;;;;;17.32;49.62;100902.75;11392187;26;20231;-57
2024/04/17 03:47:31;;;;;;;3.05;1.27;;;;;;;17.36;49.91;100909.13;11395811;25;20260;-57
2024/04/17 03:52:31;;;;;;;2.38;0.85;;;;;;;17.31;50.04;100917.22;11392573;26;20002;-57
2024/04/17 03:57:32;;;;;;;3.30;1.20;;;;;;;17.28;49.81;100917.75;11393215;25;20049;-57
2024/04/17 04:02:32;;;;;;;3.13;1.17;;;;;;;17.29;49.93;100923.94;11414758;26;20020;-57
2024/04/17 04:07:32;;;;;;;3.20;0.77;;;;;;;17.25;50.08;100923.69;11425460;25;20647;-56
2024/04/17 04:12:33;;;;;;;3.80;1.10;;;;;;;17.24;50.81;100924.78;11423325;26;20256;-57
2024/04/17 04:17:33;;;;;;;3.07;0.90;;;;;;;17.25;50.38;100916.44;11461813;25;20721;-55
2024/04/17 04:22:33;;;;;;;1.30;0.80;;;;;;;17.21;50.46;100918.09;11391226;26;20256;-56
2024/04/17 04:27:34;;;;;;;2.67;1.10;;;;;;;17.20;50.55;100921.88;11413789;26;20266;-57
2024/04/17 04:32:34;;;;;;;2.97;0.93;;;;;;;17.21;50.49;100922.66;11418776;25;20777;-57
2024/04/17 04:37:34;;;;;;;3.00;0.70;;;;;;;17.19;51.03;100928.31;11483609;25;19989;-57
2024/04/17 04:42:35;;;;;;;1.93;1.00;;;;;;;17.15;50.87;100926.44;11487815;25;20255;-57
2024/04/17 04:47:35;;;;;;;2.72;0.93;;;;;;;17.15;50.47;100927.25;11422750;26;20239;-57
2024/04/17 04:52:35;;;;;;;2.20;0.50;;;;;;;17.16;51.13;100926.16;11434046;25;20059;-57
2024/04/17 04:57:36;;;;;;;3.90;0.80;;;;;;;17.16;51.18;100934.19;11505193;25;19993;-57
2024/04/17 05:02:36;;;;;;;2.00;0.67;;;;;;;17.14;51.15;100935.56;11495868;25;22101;-57
2024/04/17 05:07:36;;;;;;;5.60;1.42;;;;;;;17.15;51.13;100937.16;11429323;26;20214;-57
2024/04/17 05:12:38;;;;;;;2.58;0.85;;;;;;;17.16;50.79;100920.81;11439625;25;20012;-57
2024/04/17 05:17:38;;;;;;;5.10;1.00;;;;;;;17.11;51.23;100928.09;11505927;25;19989;-55
2024/04/17 05:22:38;;;;;;;8.80;1.70;;;;;;;17.17;51.88;100925.13;11496364;25;20440;-58
2024/04/17 05:27:39;;;;;;;17.60;2.33;;;;;;;17.34;51.78;100926.56;11428153;26;20004;-56
2024/04/17 05:32:39;;;;;;;8.18;1.38;;;;;;;17.41;52.17;100930.53;11432225;25;20277;-57
2024/04/17 05:37:39;;;;;;;4.83;1.07;;;;;;;17.41;51.96;100930.53;11505612;25;19992;-58
2024/04/17 05:42:40;;;;;;;4.50;1.00;;;;;;;17.38;51.41;100935.63;11409322;25;20221;-58
2024/04/17 05:47:40;;;;;;;8.20;1.40;;;;;;;17.31;52.04;100938.66;11472163;25;20369;-58
2024/04/17 05:52:40;;;;;;;14.00;2.63;;;;;;;17.37;51.64;100942.88;11469568;25;20331;-57
2024/04/17 05:57:41;;;;;;;18.40;3.63;;;;;;;17.31;52.45;100944.03;11428752;26;20655;-57
2024/04/17 06:02:41;;;;;;;17.67;2.57;;;;;;;17.23;52.23;100953.44;11455273;25;20288;-58
2024/04/17 06:07:41;;;;;;;24.90;2.73;;;;;;;17.23;52.78;100941.94;11441959;25;20206;-58
2024/04/17 06:12:42;;;;;;;19.15;3.75;;;;;;;17.15;52.52;100951.38;11474097;25;20214;-57
2024/04/17 06:17:42;;;;;;;14.37;3.20;;;;;;;17.11;52.20;100954.91;11427477;26;20076;-57
2024/04/17 06:22:42;;;;;;;15.80;2.70;;;;;;;17.13;51.99;100960.75;11487389;25;20245;-57
2024/04/17 06:27:42;;;;;;;12.80;1.97;;;;;;;17.11;52.61;100952.22;11461280;25;20271;-57
2024/04/17 06:32:43;;;;;;;11.40;2.73;;;;;;;17.09;52.65;100957.84;11449729;25;20669;-57
2024/04/17 06:37:43;;;;;;;11.33;2.10;;;;;;;17.13;52.44;100958.09;11427438;26;20210;-57
2024/04/17 06:42:43;;;;;;;11.53;1.87;;;;;;;17.10;51.81;100956.78;11483679;25;20537;-57
2024/04/17 06:47:44;;;;;;;10.37;2.43;;;;;;;17.08;52.09;100950.91;11438814;25;20261;-57
2024/04/17 06:52:44;;;;;;;8.27;1.98;;;;;;;17.12;51.97;100956.50;11482696;25;20213;-57
2024/04/17 06:57:45;;;;;;;6.60;1.35;;;;;;;17.08;52.42;100950.09;11497933;25;20004;-58
2024/04/17 07:02:45;;;;;;;8.98;2.30;;;;;;;17.10;51.75;100945.25;11466274;25;20736;-58
2024/04/17 07:07:46;;;;;;;9.10;1.35;;;;;;;17.13;52.32;100950.06;11450665;25;20069;-58
2024/04/17 07:12:46;;;;;;;5.77;1.53;;;;;;;17.10;51.89;100947.94;11429371;25;20070;-57
2024/04/17 07:17:46;;;;;;;6.10;1.27;;;;;;;17.15;52.13;100945.22;11402423;25;20795;-57
2024/04/17 07:22:47;;;;;;;7.82;1.55;;;;;;;17.10;51.97;100946.06;11369682;26;20230;-57
2024/04/17 07:27:47;;;;;;;6.18;0.98;;;;;;;17.09;52.11;100943.66;11409512;26;19994;-57
2024/04/17 07:32:48;;;;;;;7.47;1.10;;;;;;;17.06;52.20;100955.75;11429867;25;19996;-57
2024/04/17 07:37:48;;;;;;;9.57;1.33;;;;;;;17.03;52.46;100942.88;11394056;26;20301;-58
2024/04/17 07:42:48;;;;;;;4.80;1.20;;;;;;;17.08;52.27;100931.34;11404818;26;20042;-57
2024/04/17 07:47:49;;;;;;;9.17;1.57;;;;;;;17.05;52.31;100930.03;11401664;26;20770;-57
2024/04/17 07:52:50;;;;;;;4.57;0.97;;;;;;;17.05;52.21;100923.84;11404767;25;20262;-57
2024/04/17 07:57:50;;;;;;;3.53;1.08;;;;;;;17.03;52.69;100934.03;11420546;26;20218;-57
2024/04/17 08:02:51;;;;;;;5.20;1.03;;;;;;;17.01;52.82;100928.19;11423686;26;20017;-57
2024/04/17 08:07:51;;;;;;;3.33;1.30;;;;;;;16.98;52.08;100931.41;11387441;25;20465;-57
2024/04/17 08:12:58;;;;;;;5.90;1.83;;;;;;;16.94;52.17;100937.34;11420100;25;20274;-57
2024/04/17 08:17:58;;;;;;;7.18;1.67;;;;;;;16.98;52.80;100934.09;11423095;26;20222;-56
2024/04/17 08:22:59;;;;;;;2.87;0.90;;;;;;;16.99;52.57;100928.47;11392444;25;19990;-57
2024/04/17 08:27:59;;;;;;;6.43;1.20;;;;;;;17.00;51.92;100926.56;11407133;25;20222;-57
2024/04/17 08:32:59;;;;;;;2.93;0.80;;;;;;;17.00;52.67;100932.72;11420300;25;20618;-57
2024/04/17 08:37:59;;;;;;;4.93;0.70;;;;;;;17.01;52.18;100920.13;11448212;25;20215;-57
2024/04/17 08:43:03;;;;;;;1.60;0.60;;;;;;;17.03;52.13;100921.44;11410618;25;20210;-55
2024/04/17 08:48:06;;;;;;;5.22;1.63;;;;;;;16.99;52.54;100911.59;11382820;26;20270;-57
2024/04/17 08:53:06;;;;;;;5.60;2.00;;;;;;;16.97;52.35;100919.91;11426087;25;20009;-56
2024/04/17 08:58:07;;;;;;;5.70;1.95;;;;;;;16.96;52.35;100915.63;11419850;26;20123;-57
2024/04/17 09:03:10;;;;;;;3.38;0.60;;;;;;;16.98;52.75;100912.66;11393813;25;20445;-57
2024/04/17 09:08:10;;;;;;;3.55;0.90;;;;;;;16.94;52.13;100923.94;11409705;25;19994;-57
2024/04/17 09:13:12;;;;;;;4.07;0.75;;;;;;;16.93;52.33;100930.38;11362359;25;19994;-57
2024/04/17 09:18:13;;;;;;;1.83;0.90;;;;;;;16.90;52.19;100928.25;11409779;25;20012;-57
2024/04/17 09:23:13;;;;;;;3.70;0.93;;;;;;;16.90;52.13;100932.81;11472697;25;19993;-55
2024/04/17 09:28:13;;;;;;;6.13;1.20;;;;;;;16.84;52.44;100940.09;11444161;25;19997;-58
2024/04/17 09:33:13;;;;;;;2.23;1.00;;;;;;;16.82;52.05;100946.81;11422883;25;20218;-58
2024/04/17 09:38:15;;;;;;;2.43;1.00;;;;;;;16.82;52.49;100958.31;11438140;25;20234;-57
2024/04/17 09:43:25;;;;;;;3.42;0.88;;;;;;;16.87;52.14;100957.47;11451819;25;20317;-57
2024/04/17 09:48:27;;;;;;;3.97;1.00;;;;;;;16.84;51.95;100950.00;11494390;25;20072;-57
2024/04/17 09:53:33;;;;;;;4.82;0.95;;;;;;;16.85;52.52;100955.06;11470231;25;20445;-58
2024/04/17 09:58:34;;;;;;;1.55;0.70;;;;;;;16.86;52.31;100958.56;11487954;25;20008;-57
2024/04/17 10:03:35;;;;;;;2.88;0.50;;;;;;;16.88;52.37;100962.53;11471014;25;19997;-57
2024/04/17 10:08:36;;;;;;;3.30;1.23;;;;;;;16.87;52.04;100960.16;11429387;25;20625;-57
2024/04/17 10:13:37;;;;;;;3.30;1.00;;;;;;;16.91;52.09;100955.81;11425464;26;19997;-57
2024/04/17 10:18:38;;;;;;;3.03;0.95;;;;;;;16.91;52.52;100961.19;11473343;25;20099;-57
2024/04/17 10:23:38;;;;;;;2.33;0.60;;;;;;;16.86;52.54;100958.56;11430104;25;20084;-57
2024/04/17 10:28:39;;;;;;;1.67;0.90;;;;;;;16.87;52.84;100960.94;11452807;25;20001;-57
2024/04/17 10:33:40;;;;;;;1.63;0.63;;;;;;;16.88;52.92;100959.06;11457831;25;20695;-57
2024/04/17 10:38:41;;;;;;;3.67;1.20;;;;;;;16.88;52.96;100949.16;11473090;25;20221;-58
2024/04/17 10:43:42;;;;;;;3.60;0.68;;;;;;;16.92;53.27;100952.06;11500819;25;19988;-58
2024/04/17 10:48:46;;;;;;;1.23;0.52;;;;;;;16.95;52.85;100946.97;11498230;25;19989;-57
2024/04/17 10:53:47;;;;;;;1.77;0.63;;;;;;;16.92;53.66;100946.72;11446269;25;20436;-57
2024/04/17 10:58:48;;;;;;;1.73;0.95;;;;;;;16.91;53.75;100943.22;11460476;25;20004;-56
2024/04/17 11:03:48;;;;;;;2.30;0.80;;;;;;;16.90;53.91;100928.25;11475059;25;20015;-57
2024/04/17 11:08:48;;;;;;;1.58;0.57;;;;;;;16.93;53.86;100924.22;11502910;25;20023;-58
2024/04/17 11:13:50;;;;;;;2.25;1.00;;;;;;;16.97;53.69;100922.59;11408238;25;20008;-59
2024/04/17 11:18:51;;;;;;;3.10;0.85;;;;;;;17.08;52.98;100929.47;11425294;25;20005;-59
2024/04/17 11:23:51;;;;;;;2.10;0.80;;;;;;;17.12;53.27;100919.78;11416168;25;20015;-59
2024/04/17 11:28:51;;;;;;;2.40;0.90;;;;;;;17.11;52.63;100915.50;11469877;25;20098;-60
2024/04/17 11:33:52;;;;;;;1.67;0.60;;;;;;;16.97;52.54;100919.91;11431146;25;20222;-60
2024/04/17 11:38:52;;;;;;;3.17;1.17;;;;;;;16.92;52.64;100917.25;11454694;25;20334;-58
2024/04/17 11:43:52;;;;;;;3.30;0.73;;;;;;;16.85;53.26;100924.81;11421006;25;21070;-58
2024/04/17 11:48:53;;;;;;;2.72;0.90;;;;;;;16.82;52.79;100941.44;11397014;25;20258;-58
2024/04/17 11:53:53;;;;;;;2.70;0.90;;;;;;;16.76;53.26;100970.13;11452257;25;20013;-59
2024/04/17 11:58:53;;;;;;;1.43;0.77;;;;;;;16.71;53.22;100980.06;11502378;25;19992;-61
2024/04/17 12:03:54;;;;;;;2.58;0.77;;;;;;;16.67;53.71;100993.16;11443920;25;20776;-61
2024/04/17 12:08:55;;;;;;;2.85;0.85;;;;;;;16.65;53.54;100992.63;11436142;25;20603;-59
2024/04/17 12:13:55;;;;;;;21.43;2.30;;;;;;;16.79;54.73;101015.06;11468529;25;20001;-58
2024/04/17 12:18:55;;;;;;;11.87;1.67;;;;;;;16.80;54.78;101024.72;11499708;25;20257;-59
2024/04/17 12:23:55;;;;;;;8.33;1.80;;;;;;;16.87;54.96;101038.63;11451829;25;20261;-59
2024/04/17 12:28:56;;;;;;;10.13;1.20;;;;;;;16.93;54.32;101045.56;11423040;26;20210;-60
2024/04/17 12:33:56;;;;;;;6.72;0.88;;;;;;;16.93;54.63;101044.75;11456290;25;20371;-59
2024/04/17 12:38:57;;;;;;;8.82;1.27;;;;;;;17.04;54.27;101045.47;11428713;25;20429;-58
2024/04/17 12:43:57;;;;;;;9.13;1.60;;;;;;;16.91;54.50;101041.53;11461317;25;20004;-58
2024/04/17 12:48:57;;;;;;;8.63;1.80;;;;;;;16.82;54.39;101027.13;11500182;25;20001;-59
2024/04/17 12:53:57;;;;;;;17.47;2.50;;;;;;;16.77;54.49;101035.19;11424665;25;20705;-57
2024/04/17 12:58:58;;;;;;;10.23;2.10;;;;;;;16.80;54.52;101027.38;11445617;25;20207;-58
2024/04/17 13:04:00;;;;;;;6.80;1.67;;;;;;;16.86;54.53;101015.59;11458928;25;20613;-58
2024/04/17 13:09:00;;;;;;;11.50;1.92;;;;;;;16.84;54.50;101012.41;11457566;25;20228;-59
2024/04/17 13:14:00;;;;;;;15.13;2.37;;;;;;;16.74;54.92;101001.72;11461151;25;20508;-58
2024/04/17 13:19:01;;;;;;;13.10;1.97;;;;;;;16.75;54.65;100991.81;11464830;25;20256;-59
2024/04/17 13:24:01;;;;;;;10.23;1.73;;;;;;;16.82;54.41;100992.34;11468212;25;20258;-59
2024/04/17 13:29:01;;;;;;;14.33;1.77;;;;;;;16.89;54.78;100980.22;11458178;25;20225;-60
2024/04/17 13:34:02;;;;;;;22.97;3.03;;;;;;;16.89;54.69;100980.22;11463939;25;20222;-60
2024/04/17 13:39:02;;;;;;;24.85;3.17;;;;;;;16.92;55.38;100970.81;11398747;25;20644;-60
2024/04/17 13:44:03;;;;;;;30.70;4.25;;;;;;;16.94;55.54;100966.00;11430103;25;19993;-60
2024/04/17 13:49:03;;;;;;;22.93;2.73;;;;;;;16.93;55.29;100959.84;11434468;25;20445;-60
2024/04/17 13:54:03;;;;;;;27.90;3.47;;;;;;;16.91;55.94;100955.81;11453153;25;20250;-60
2024/04/17 13:59:04;;;;;;;33.13;3.77;;;;;;;16.92;55.42;100952.88;11430767;25;20297;-60
2024/04/17 14:04:04;;;;;;;21.13;3.33;;;;;;;16.84;54.92;100950.78;11426971;25;20712;-60
2024/04/17 14:09:04;;;;;;;9.75;2.28;;;;;;;16.90;55.17;100947.00;11446860;25;20213;-59
2024/04/17 14:14:05;;;;;;;21.97;2.70;;;;;;;16.89;54.84;100934.69;11405147;26;20020;-60
2024/04/17 14:19:05;;;;;;;22.53;4.27;;;;;;;16.96;56.44;100923.66;11445979;25;20928;-59
2024/04/17 14:24:06;;;;;;;15.00;3.80;;;;;;;16.98;55.38;100926.06;11505075;25;20265;-60
2024/04/17 14:29:06;;;;;;;16.90;3.50;;;;;;;16.97;55.20;100921.78;11434450;25;19996;-59
2024/04/17 14:34:06;;;;;;;11.93;2.70;;;;;;;17.11;56.96;100923.53;11436467;25;20035;-60
2024/04/17 14:39:06;;;;;;;34.33;3.87;;;;;;;17.20;56.72;100921.06;11484966;25;20278;-59
2024/04/17 14:44:07;;;;;;;26.63;4.10;;;;;;;17.38;57.08;100917.69;11474670;25;20230;-60
2024/04/17 14:49:07;;;;;;;21.83;3.97;;;;;;;17.60;57.07;100922.56;11391687;26;20267;-60
2024/04/17 14:54:09;;;;;;;15.17;3.60;;;;;;;17.72;57.72;100920.31;11442865;25;20261;-60
2024/04/17 14:59:09;;;;;;;22.30;5.85;;;;;;;17.60;58.10;100922.56;11499884;25;20209;-59
2024/04/17 15:04:09;;;;;;;20.73;5.68;;;;;;;17.65;58.01;100916.38;11399341;25;20437;-57
2024/04/17 15:09:10;;;;;;;10.87;4.17;;;;;;;17.73;58.41;100913.88;11410317;25;20449;-59
2024/04/17 15:14:10;;;;;;;17.27;4.80;;;;;;;17.84;59.64;100903.84;11437449;25;20218;-58
2024/04/17 15:19:15;;;;;;;19.30;4.00;;;;;;;18.02;58.19;100913.03;11417336;26;20262;-59
2024/04/17 15:24:16;;;;;;;37.90;7.60;;;;;;;17.92;59.48;100913.94;11452323;25;20261;-59
2024/04/17 15:29:16;;;;;;;21.83;3.92;;;;;;;17.85;61.47;100920.72;11396642;26;20027;-59
2024/04/17 15:34:16;;;;;;;14.48;4.78;;;;;;;18.00;58.95;100910.63;11452394;25;20433;-59
2024/04/17 15:39:22;;;;;;;18.60;4.10;;;;;;;17.83;59.50;100910.28;11460735;25;20373;-59
2024/04/17 15:44:24;;;;;;;13.23;3.47;;;;;;;17.74;59.06;100904.75;11418494;26;20225;-56
2024/04/17 15:49:24;;;;;;;15.23;4.15;;;;;;;17.63;58.12;100921.19;11424075;26;19997;-60
2024/04/17 15:54:24;;;;;;;14.23;3.03;;;;;;;17.56;58.50;100924.22;11424016;26;20008;-59
2024/04/17 15:59:28;;;;;;;11.60;2.92;;;;;;;17.46;58.95;100924.31;11421815;26;20336;-59
2024/04/17 16:04:29;;;;;;;14.35;3.20;;;;;;;17.35;58.63;100922.81;11421993;26;20016;-59
2024/04/17 16:09:29;;;;;;;11.70;3.73;;;;;;;17.30;59.14;100929.03;11402269;26;20001;-59
2024/04/17 16:14:30;;;;;;;12.97;2.90;;;;;;;17.26;58.48;100925.28;11397633;26;20870;-59
2024/04/17 16:19:31;;;;;;;8.32;2.97;;;;;;;17.23;58.71;100932.00;11372746;26;20262;-58
2024/04/17 16:24:31;;;;;;;7.70;2.30;;;;;;;17.19;58.90;100925.63;11402510;26;19994;-59
2024/04/17 16:29:31;;;;;;;7.20;2.50;;;;;;;17.17;58.44;100921.63;11362900;26;20843;-59
2024/04/17 16:34:32;;;;;;;7.80;2.70;;;;;;;17.15;58.38;100926.44;11381171;25;20215;-59
2024/04/17 16:39:33;;;;;;;7.22;2.38;;;;;;;17.10;58.17;100927.31;11386810;26;20701;-58
2024/04/17 16:44:34;;;;;;;6.77;3.13;;;;;;;17.08;58.08;100934.81;11423029;26;20002;-59
2024/04/17 16:49:34;;;;;;;8.68;2.20;;;;;;;17.03;57.71;100923.34;11420694;26;20207;-59
2024/04/17 16:54:36;;;;;;;8.70;1.97;;;;;;;16.99;57.84;100935.69;11429749;26;20005;-58
2024/04/17 16:59:36;;;;;;;7.32;1.80;;;;;;;17.01;57.47;100942.38;11428240;26;20275;-59
2024/04/17 17:04:37;;;;;;;6.32;2.05;;;;;;;16.98;57.00;100942.94;11429037;25;19993;-59
2024/04/17 17:09:37;;;;;;;5.63;2.10;;;;;;;16.92;57.50;100944.03;11395961;26;19997;-58
2024/04/17 17:14:37;;;;;;;7.67;1.53;;;;;;;16.92;57.16;100946.72;11429960;26;20214;-58
2024/04/17 17:19:38;;;;;;;5.07;2.13;;;;;;;16.93;56.72;100946.47;11426944;26;20222;-59
2024/04/17 17:24:38;;;;;;;4.47;1.50;;;;;;;16.93;56.80;100951.81;11408420;25;20717;-57
2024/04/17 17:29:38;;;;;;;2.90;2.07;;;;;;;17.10;57.21;100958.66;11407675;26;20223;-59
2024/04/17 17:34:39;;;;;;;8.53;1.80;;;;;;;17.10;56.67;100954.09;11409849;25;20210;-59
2024/04/17 17:39:39;;;;;;;4.95;1.38;;;;;;;17.12;56.46;100965.31;11361162;25;20207;-58
2024/04/17 17:44:40;;;;;;;13.63;2.28;;;;;;;17.31;56.75;100954.75;11428005;25;19993;-60
2024/04/17 17:49:43;;;;;;;8.70;2.80;;;;;;;17.33;56.27;100957.13;11394648;26;19993;-60
2024/04/17 17:54:44;;;;;;;3.88;1.38;;;;;;;17.30;56.80;100963.88;11427960;26;20482;-59
2024/04/17 17:59:44;;;;;;;4.27;1.30;;;;;;;17.37;55.63;100958.97;11393468;26;19994;-60
2024/04/17 18:04:45;;;;;;;7.97;1.77;;;;;;;17.18;56.30;100960.75;11420471;25;20611;-60
2024/04/17 18:09:45;;;;;;;5.13;2.17;;;;;;;17.11;56.44;100961.06;11390403;26;20244;-60
2024/04/17 18:14:48;;;;;;;2.40;1.40;;;;;;;17.04;56.80;100965.13;11413662;26;20001;-60
2024/04/17 18:19:53;;;;;;;3.08;1.30;;;;;;;17.00;56.56;100978.28;11393948;26;20331;-60
2024/04/17 18:24:53;;;;;;;3.75;0.90;;;;;;;16.97;56.70;100983.41;11439855;25;20055;-60
2024/04/17 18:29:53;;;;;;;6.43;1.50;;;;;;;16.95;56.47;100986.34;11322818;26;19999;-59
2024/04/17 18:34:54;;;;;;;3.15;1.38;;;;;;;16.97;56.66;100986.88;11346668;26;20219;-60
2024/04/17 18:39:54;;;;;;;5.33;1.40;;;;;;;17.02;57.66;101005.56;11346212;26;19994;-58
2024/04/17 18:44:55;;;;;;;3.10;1.10;;;;;;;17.08;57.51;101003.69;11347703;26;20250;-60
2024/04/17 18:49:55;;;;;;;5.57;1.93;;;;;;;17.12;57.23;101004.72;11347799;26;20010;-59
2024/04/17 18:54:55;;;;;;;5.47;2.57;;;;;;;17.13;56.53;101015.16;11308716;26;20239;-60
2024/04/17 18:59:56;;;;;;;7.57;2.25;;;;;;;17.12;56.64;101012.75;11341176;26;20890;-60
2024/04/17 19:04:56;;;;;;;3.00;1.63;;;;;;;17.14;57.12;101030.16;11346333;26;20808;-60
2024/04/17 19:09:56;;;;;;;3.83;1.98;;;;;;;17.17;56.74;101032.28;11347171;26;20329;-59
2024/04/17 19:15:00;;;;;;;5.00;2.13;;;;;;;17.19;57.21;101032.00;11346091;26;19998;-60
2024/04/17 19:20:00;;;;;;;4.35;1.80;;;;;;;17.17;56.65;101039.53;11346967;26;20328;-60
2024/04/17 19:25:00;;;;;;;3.70;2.00;;;;;;;17.14;56.83;101050.78;11346952;26;20457;-61
2024/04/17 19:30:04;;;;;;;3.10;1.75;;;;;;;17.15;55.87;101053.19;11343442;26;20229;-61
2024/04/17 19:35:05;;;;;;;4.00;1.58;;;;;;;17.15;55.86;101053.19;11333979;26;19994;-61
2024/04/17 19:40:05;;;;;;;7.97;1.83;;;;;;;17.14;55.34;101061.50;11315922;26;20325;-60
2024/04/17 19:45:06;;;;;;;5.53;1.75;;;;;;;17.10;55.68;101061.25;11348281;26;20005;-61
2024/04/17 19:50:07;;;;;;;3.78;1.73;;;;;;;17.13;55.26;101062.59;11347408;26;20005;-60
2024/04/17 19:55:07;;;;;;;3.92;1.58;;;;;;;17.13;55.15;101082.13;11348095;26;20063;-61
2024/04/17 20:00:09;;;;;;;4.50;1.50;;;;;;;17.10;54.98;101077.34;11347522;26;20030;-61
2024/04/17 20:05:10;;;;;;;3.67;1.40;;;;;;;17.13;55.45;101089.38;11347874;26;20456;-61
2024/04/17 20:10:10;;;;;;;5.03;1.85;;;;;;;17.14;55.13;101088.28;11346265;26;20010;-61
2024/04/17 20:15:10;;;;;;;2.67;1.13;;;;;;;17.12;54.85;101101.16;11347906;26;19998;-60
2024/04/17 20:20:11;;;;;;;3.20;1.60;;;;;;;17.14;55.03;101104.38;11346386;26;20223;-61
2024/04/17 20:25:11;;;;;;;4.60;2.20;;;;;;;17.14;55.27;101107.06;11346385;26;20264;-61
2024/04/17 20:30:12;;;;;;;3.97;1.70;;;;;;;17.16;54.47;101115.59;11346506;26;20246;-62
2024/04/17 20:35:12;;;;;;;4.47;1.95;;;;;;;17.20;54.13;101111.31;11347241;26;20260;-61
2024/04/17 20:40:12;;;;;;;4.75;2.63;;;;;;;17.20;54.74;101117.47;11346441;26;20033;-61
2024/04/17 20:45:15;;;;;;;5.72;3.10;;;;;;;17.15;54.08;101127.41;11347399;26;20006;-60
2024/04/17 20:50:16;;;;;;;4.90;2.88;;;;;;;17.12;54.40;101128.75;11346420;26;20334;-61
2024/04/17 20:55:16;;;;;;;5.13;2.43;;;;;;;17.14;54.50;101134.66;11345815;26;20009;-61
2024/04/17 21:00:16;;;;;;;5.50;2.87;;;;;;;17.14;53.91;101140.00;11345858;26;20215;-61
2024/04/17 21:05:17;;;;;;;6.43;3.65;;;;;;;17.13;54.13;101137.59;11345612;26;20248;-61
2024/04/17 21:10:17;;;;;;;4.97;2.70;;;;;;;17.14;54.09;101136.53;11282914;26;19994;-61
2024/04/17 21:15:18;;;;;;;4.93;2.08;;;;;;;17.15;53.85;101138.13;11345281;26;19998;-61
2024/04/17 21:20:19;;;;;;;4.70;2.17;;;;;;;17.15;53.98;101148.84;11344563;26;19994;-61
2024/04/17 21:25:19;;;;;;;3.00;1.88;;;;;;;17.12;53.82;101144.03;11345312;26;20242;-61
2024/04/17 21:30:19;;;;;;;4.43;1.75;;;;;;;17.13;54.39;101151.00;11344405;26;20358;-61
2024/04/17 21:35:20;;;;;;;4.40;2.10;;;;;;;17.12;54.00;101152.88;11344764;26;20002;-62
2024/04/17 21:40:20;;;;;;;3.87;2.37;;;;;;;17.11;53.98;101164.69;11351211;26;20223;-61
2024/04/17 21:45:20;;;;;;;2.73;1.83;;;;;;;17.11;54.05;101172.72;11352326;26;20219;-61
2024/04/17 21:50:21;;;;;;;3.93;1.80;;;;;;;17.13;53.89;101170.56;11351672;26;20562;-61
2024/04/17 21:55:21;;;;;;;2.90;1.48;;;;;;;17.12;53.72;101177.00;11352340;26;20260;-61
2024/04/17 22:00:22;;;;;;;4.70;1.83;;;;;;;17.10;53.80;101184.50;11351617;26;20070;-61
2024/04/17 22:05:22;;;;;;;2.87;1.67;;;;;;;17.12;53.73;101184.22;11351755;26;20320;-61
2024/04/17 22:10:22;;;;;;;2.08;1.10;;;;;;;17.13;53.30;101193.88;11351298;26;20263;-60
2024/04/17 22:15:23;;;;;;;3.08;1.20;;;;;;;17.11;53.49;101198.72;11351051;26;20071;-61
2024/04/17 22:20:23;;;;;;;2.77;1.37;;;;;;;17.09;53.55;101201.66;11351639;26;19994;-60
2024/04/17 22:25:23;;;;;;;3.33;1.05;;;;;;;17.11;53.32;101210.22;11349517;26;20885;-61
2024/04/17 22:30:24;;;;;;;2.72;1.40;;;;;;;17.09;53.31;101217.75;11351109;26;20001;-61
2024/04/17 22:35:24;;;;;;;2.92;1.30;;;;;;;17.13;53.22;101208.06;11359710;26;20006;-61
2024/04/17 22:40:25;;;;;;;2.20;1.65;;;;;;;17.14;53.22;101215.03;11350442;26;20077;-61
2024/04/17 22:45:25;;;;;;;2.17;1.23;;;;;;;17.14;53.14;101216.91;11318044;26;20067;-61
2024/04/17 22:50:25;;;;;;;1.93;1.00;;;;;;;17.10;53.34;101229.25;11316318;26;20396;-61
2024/04/17 22:55:26;;;;;;;1.83;0.82;;;;;;;17.10;52.95;101234.63;11349848;26;20263;-61